Gambell, AK

8:42 PM AKDT on September 18, 2014 (GMT -0800)
Savoonga | Change Station
CLOSE
Current Station
Airport
Location: Savoonga,
Elevation: 52 ft
Nearby Weather Stations

Elev 52 ft 63.69 °N, 170.49 °W | Updated 6 minutes ago

Overcast
Overcast
43 °F
Feels Like 34 °F
N
23
Wind Variable Wind from North
Gusts 29 mph

Today
High -- | Low -- °F
--% Chance of Precip.
Yesterday
High -- | Low -- °F
Precip. -- in
8:59 AM 9:40 PM
Waning Crescent, 22% visible
Pressure 29.59 in
Visibility 10.0 miles
Clouds Few 1800 ft
Overcast 3700 ft
Windchill 34 °F
Dew Point 36 °F
Humidity 76%
Rainfall 0.00 in
Snow Depth 1 in , 1 in , 1 in
UV 0 out of 12
Pollen Not available.
Air Quality Not available.
Flu Activity Not available.
METAR PASA 190436Z AUTO 35020G25KT 10SM FEW018 OVC037 06/02 A2959 RMK AO1

More Conditions Fewer Conditions

Pressure 29.59 in
Visibility 10.0 miles
Clouds Few 1800 ft
Overcast 3700 ft
Windchill 34 °F
Dew Point 36 °F
Humidity 76%
Rainfall 0.00 in
Snow Depth 1 in , 1 in , 1 in
UV 0 out of 12
Pollen Not available.
Air Quality Not available.
Flu Activity Not available.
METAR PASA 190436Z AUTO 35020G25KT 10SM FEW018 OVC037 06/02 A2959 RMK AO1

More Conditions Fewer Conditions

10-Day Weather Forecast

Almanac

Astronomy

Sep. 18, 2014 Rise Set
Actual Time 8:59 AM AKDT 9:40 PM AKDT
Civil Twilight 8:11 AM AKDT 10:28 PM AKDT
Nautical Twilight 7:12 AM AKDT 11:26 PM AKDT
Astronomical Twilight 6:02 AM AKDT 12:35 AM AKDT
Moon 2:42 AM AKDT (9/18) 7:51 PM AKDT (9/18)
Length of Visible Light 14h 16m
Length of Day
12h 41m
Tomorrow will be 6m 19s shorter.
Waning Crescent, 22% of the Moon is Illuminated
Sep 19
Waning Crescent
Sep 24
New
Oct 1
First Quarter
Oct 8
Full
Oct 15
Last Quarter

Yesterday's Extremes

State Highs State Lows

Community

WunderPhotos

Upload Photos

1,754,558 photos uploaded!

Nearby

Snow Depth

Station Depth Elevation
Point Mackenzie 1 in 200 ft
Fort Yukon 1 in 430 ft
Indian Pass 1 in 2300 ft
Upper Tsaina River 0 in 1750 ft
Upper Chena 1 in 2850 ft

Earthquake Activity

City Distance Mag. Time & Date
No recent earthquake activity has been reported nearby.
Minimum magnitude displayed is 2.5.

Coastal Water Temperatures

Place Temperature
No Stations Reporting

Nearby Weather Stations